createdAt,value
2022-12-26T00:00:22.329Z,33.80
2022-12-26T00:02:49.024Z,33.88
2022-12-26T00:05:15.751Z,33.40
2022-12-26T00:07:42.424Z,31.98
2022-12-26T00:10:09.206Z,31.90
2022-12-26T00:12:35.922Z,31.77
2022-12-26T00:15:02.535Z,33.67
2022-12-26T00:17:29.090Z,35.58
2022-12-26T00:19:55.645Z,32.85
2022-12-26T00:22:22.220Z,36.13
2022-12-26T00:24:48.805Z,34.30
2022-12-26T00:27:15.368Z,35.35
2022-12-26T00:29:41.991Z,36.35
2022-12-26T00:32:08.530Z,36.33
2022-12-26T00:34:35.139Z,39.80
2022-12-26T00:37:01.705Z,39.70
2022-12-26T00:39:28.252Z,39.40
2022-12-26T00:41:54.784Z,36.90
2022-12-26T00:44:22.395Z,38.47
2022-12-26T00:46:48.961Z,36.72
2022-12-26T00:49:15.580Z,36.92
2022-12-26T00:51:42.125Z,38.15
2022-12-26T00:54:08.665Z,37.95
2022-12-26T00:56:35.189Z,37.05
2022-12-26T00:59:01.767Z,36.45
2022-12-26T01:01:30.960Z,35.80
2022-12-26T01:03:58.719Z,36.40
2022-12-26T01:06:25.292Z,36.05
2022-12-26T01:08:54.003Z,36.97
2022-12-26T01:11:40.260Z,39.10
2022-12-26T01:14:10.447Z,40.20
2022-12-26T01:16:38.012Z,40.53
2022-12-26T01:19:05.691Z,39.65
2022-12-26T01:21:32.508Z,40.33
2022-12-26T01:23:59.748Z,43.83
2022-12-26T01:26:26.300Z,40.88
2022-12-26T01:28:53.488Z,43.85
2022-12-26T01:31:21.220Z,41.88
2022-12-26T01:33:48.614Z,45.72
2022-12-26T01:36:16.609Z,46.50
2022-12-26T01:38:43.598Z,49.58
2022-12-26T01:41:17.349Z,50.17
2022-12-26T01:43:50.624Z,50.60
2022-12-26T01:46:20.727Z,51.28
2022-12-26T01:48:47.653Z,53.08
2022-12-26T01:51:15.660Z,55.28
2022-12-26T01:53:52.376Z,59.92
2022-12-26T01:56:35.248Z,57.47
2022-12-26T01:59:09.545Z,58.17
2022-12-26T02:01:39.678Z,58.58
2022-12-26T02:04:31.011Z,56.03
2022-12-26T02:06:57.949Z,55.20
2022-12-26T02:09:24.692Z,57.85
2022-12-26T02:12:36.676Z,59.05
2022-12-26T02:14:48.038Z,55.40
2022-12-26T02:17:14.645Z,58.72
2022-12-26T02:20:27.291Z,60.90
2022-12-26T02:23:27.459Z,56.33
2022-12-26T02:25:53.959Z,55.38
2022-12-26T02:28:51.182Z,59.58
2022-12-26T02:31:37.994Z,57.78
2022-12-26T02:34:16.668Z,58.78
2022-12-26T02:36:51.198Z,58.65
2022-12-26T02:39:46.434Z,62.75
2022-12-26T02:42:19.399Z,62.38
2022-12-26T02:45:04.567Z,62.72
2022-12-26T02:47:41.165Z,64.43
2022-12-26T02:51:00.449Z,66.55
2022-12-26T02:54:20.494Z,65.55
2022-12-26T02:57:10.779Z,71.35
2022-12-26T03:00:26.674Z,83.93
2022-12-26T03:03:13.968Z,87.43
2022-12-26T03:06:33.943Z,85.47
2022-12-26T03:09:23.207Z,73.13
2022-12-26T03:12:13.608Z,70.55
2022-12-26T03:14:46.080Z,70.22
2022-12-26T03:17:21.674Z,68.28
2022-12-26T03:19:59.640Z,62.40
2022-12-26T03:22:49.047Z,57.92
2022-12-26T03:25:37.106Z,60.30
2022-12-26T03:28:03.986Z,60.88
2022-12-26T03:30:49.499Z,62.05
2022-12-26T03:33:43.531Z,64.45
2022-12-26T03:36:20.787Z,69.72
2022-12-26T03:38:57.848Z,73.32
2022-12-26T03:41:55.151Z,76.60
2022-12-26T03:45:05.293Z,81.10
2022-12-26T03:48:16.021Z,73.20
2022-12-26T03:51:13.883Z,65.68
2022-12-26T03:54:07.902Z,62.45
2022-12-26T03:57:01.402Z,57.97
2022-12-26T03:59:58.449Z,60.90
2022-12-26T04:02:53.065Z,65.45
2022-12-26T04:05:39.411Z,63.57
2022-12-26T04:08:35.391Z,61.40
2022-12-26T04:11:21.622Z,59.92
2022-12-26T04:14:13.600Z,59.85
2022-12-26T04:17:19.371Z,56.95
2022-12-26T04:22:47.433Z,57.25
2022-12-26T04:25:50.155Z,54.78
2022-12-26T04:28:38.394Z,52.53
2022-12-26T04:31:40.274Z,51.50
2022-12-26T04:34:31.630Z,50.28
2022-12-26T04:37:22.256Z,53.10
2022-12-26T04:40:13.347Z,54.70
2022-12-26T04:43:01.832Z,51.90
2022-12-26T04:45:49.099Z,49.90
2022-12-26T04:48:34.591Z,49.50
2022-12-26T04:51:01.186Z,50.00
2022-12-26T04:53:27.763Z,51.42
2022-12-26T04:55:54.429Z,52.15
2022-12-26T04:58:24.248Z,51.10
2022-12-26T05:00:51.160Z,48.22
2022-12-26T05:03:36.622Z,48.55
2022-12-26T05:06:21.715Z,47.15
2022-12-26T05:11:35.264Z,49.08
2022-12-26T05:14:01.994Z,49.92
2022-12-26T05:16:47.264Z,50.60
2022-12-26T05:19:37.307Z,48.22
2022-12-26T05:22:23.583Z,49.35
2022-12-26T05:25:09.175Z,51.78
2022-12-26T05:27:56.906Z,47.85
2022-12-26T05:30:23.789Z,44.30
2022-12-26T05:33:08.563Z,40.70
2022-12-26T05:35:36.206Z,39.25
2022-12-26T05:38:03.778Z,39.20
2022-12-26T05:40:31.123Z,40.38
2022-12-26T05:42:57.746Z,40.88
2022-12-26T05:45:24.296Z,38.30
2022-12-26T05:47:52.205Z,39.08
2022-12-26T05:50:19.044Z,40.00
2022-12-26T05:52:45.648Z,38.70
2022-12-26T05:55:12.193Z,38.20
2022-12-26T05:57:38.784Z,37.70
2022-12-26T06:00:06.001Z,37.67
2022-12-26T06:02:32.703Z,36.25
2022-12-26T06:04:59.320Z,34.53
2022-12-26T06:07:25.900Z,31.55
2022-12-26T06:09:52.498Z,32.25
2022-12-26T06:12:19.036Z,30.65
2022-12-26T06:14:45.674Z,28.85
2022-12-26T06:17:12.235Z,29.80
2022-12-26T06:19:44.676Z,31.13
2022-12-26T06:22:13.171Z,32.50
2022-12-26T06:24:39.874Z,30.90
2022-12-26T06:27:06.407Z,28.23
2022-12-26T06:29:32.980Z,30.45
2022-12-26T06:31:59.659Z,30.25
2022-12-26T06:34:27.781Z,31.60
2022-12-26T06:36:57.631Z,30.98
2022-12-26T06:39:24.804Z,29.00
2022-12-26T06:41:51.466Z,31.10
2022-12-26T06:44:19.713Z,30.17
2022-12-26T06:46:46.338Z,30.60
2022-12-26T06:49:13.206Z,31.52
2022-12-26T06:51:39.814Z,28.50
2022-12-26T06:54:07.043Z,29.77
2022-12-26T06:56:34.322Z,29.90
2022-12-26T06:59:05.874Z,29.05
2022-12-26T07:01:35.110Z,29.52
2022-12-26T07:04:04.632Z,30.25
2022-12-26T07:06:32.683Z,30.45
2022-12-26T07:09:13.111Z,32.22
2022-12-26T07:11:41.471Z,33.75
2022-12-26T07:14:08.807Z,35.75
2022-12-26T07:16:37.047Z,36.80
2022-12-26T07:19:04.662Z,36.05
2022-12-26T07:21:37.920Z,39.70
2022-12-26T07:24:08.922Z,36.70
2022-12-26T07:26:35.636Z,33.38
2022-12-26T07:29:02.258Z,33.58
2022-12-26T07:31:29.705Z,32.47
2022-12-26T07:33:56.983Z,34.13
2022-12-26T07:36:25.257Z,36.38
2022-12-26T07:38:52.172Z,37.55
2022-12-26T07:41:38.086Z,40.17
2022-12-26T07:44:06.122Z,44.03
2022-12-26T07:46:33.095Z,47.45
2022-12-26T07:48:59.951Z,47.58
2022-12-26T07:51:27.115Z,49.10
2022-12-26T07:53:53.731Z,51.25
2022-12-26T07:56:20.309Z,51.28
2022-12-26T07:58:50.445Z,45.60
2022-12-26T08:01:17.193Z,43.42
2022-12-26T08:03:44.079Z,44.92
2022-12-26T08:06:11.726Z,46.50
2022-12-26T08:08:38.690Z,45.17
2022-12-26T08:11:07.652Z,42.40
2022-12-26T08:13:35.175Z,45.63
2022-12-26T08:16:10.548Z,46.88
2022-12-26T08:18:37.203Z,51.67
2022-12-26T08:21:03.892Z,60.22
2022-12-26T08:23:30.763Z,55.95
2022-12-26T08:25:57.356Z,56.20
2022-12-26T08:28:24.096Z,52.47
2022-12-26T08:30:50.740Z,57.13
2022-12-26T08:33:17.660Z,57.55
2022-12-26T08:35:44.970Z,58.08
2022-12-26T08:38:11.602Z,56.60
2022-12-26T08:40:45.246Z,58.83
2022-12-26T08:43:31.077Z,61.28
2022-12-26T08:46:01.209Z,62.78
2022-12-26T08:48:28.206Z,63.65
2022-12-26T08:51:02.525Z,71.65
2022-12-26T08:53:32.737Z,73.32
2022-12-26T08:56:00.043Z,73.68
2022-12-26T08:58:28.385Z,73.65
2022-12-26T09:00:55.739Z,68.88
2022-12-26T09:03:23.143Z,77.30
2022-12-26T09:05:49.794Z,92.63
2022-12-26T09:08:16.534Z,103.22
2022-12-26T09:10:43.122Z,121.78
2022-12-26T09:13:09.841Z,126.05
2022-12-26T09:15:36.532Z,125.68
2022-12-26T09:18:03.130Z,122.68
2022-12-26T09:20:29.712Z,132.73
2022-12-26T09:22:56.351Z,137.15
2022-12-26T09:25:26.118Z,129.40
2022-12-26T09:27:58.759Z,130.02
2022-12-26T09:30:26.149Z,132.63
2022-12-26T09:32:53.268Z,125.13
2022-12-26T09:35:19.978Z,126.82
2022-12-26T09:37:46.648Z,118.57
2022-12-26T09:40:23.850Z,121.15
2022-12-26T09:43:10.693Z,132.50
2022-12-26T09:45:47.844Z,138.45
2022-12-26T09:48:21.780Z,168.15
2022-12-26T09:50:51.910Z,179.88
2022-12-26T09:53:23.812Z,236.25
2022-12-26T09:55:58.837Z,217.93
2022-12-26T09:58:29.608Z,233.98
2022-12-26T10:01:01.851Z,272.27
2022-12-26T10:03:28.934Z,172.50
2022-12-26T10:06:08.296Z,162.88
2022-12-26T10:08:45.925Z,152.90
2022-12-26T10:11:56.602Z,147.25
2022-12-26T10:14:29.125Z,100.25
2022-12-26T10:17:28.054Z,74.25
2022-12-26T10:20:13.241Z,45.90
2022-12-26T10:22:58.181Z,41.63
2022-12-26T10:25:43.567Z,56.20
2022-12-26T10:28:28.434Z,68.85
2022-12-26T10:33:41.567Z,118.93
2022-12-26T10:36:20.733Z,85.88
2022-12-26T10:38:49.784Z,79.93
2022-12-26T10:41:41.935Z,77.00
2022-12-26T10:44:13.025Z,72.10
2022-12-26T10:46:52.130Z,50.55
2022-12-26T10:49:22.172Z,36.97
2022-12-26T10:51:50.695Z,37.67
2022-12-26T10:54:18.610Z,36.55
2022-12-26T10:56:48.163Z,36.30
2022-12-26T10:59:21.176Z,34.13
2022-12-26T11:01:48.761Z,34.58
2022-12-26T11:05:01.920Z,36.45
2022-12-26T11:07:12.865Z,33.38
2022-12-26T11:09:42.765Z,34.80
2022-12-26T11:12:22.258Z,34.78
2022-12-26T11:14:49.202Z,34.53
2022-12-26T11:17:33.589Z,36.42
2022-12-26T11:20:12.358Z,37.85
2022-12-26T11:22:38.936Z,35.63
2022-12-26T11:25:13.743Z,37.80
2022-12-26T11:27:45.965Z,32.88
2022-12-26T11:30:29.738Z,34.85
2022-12-26T11:33:11.714Z,36.35
2022-12-26T11:35:57.013Z,35.20
2022-12-26T11:38:42.530Z,35.38
2022-12-26T11:41:39.662Z,34.42
2022-12-26T11:44:18.322Z,35.28
2022-12-26T11:46:49.882Z,36.50
2022-12-26T11:49:49.635Z,35.30
2022-12-26T11:52:51.993Z,36.38
2022-12-26T11:55:24.861Z,35.45
2022-12-26T11:58:06.842Z,35.85
2022-12-26T12:00:41.210Z,36.33
2022-12-26T12:06:01.998Z,32.97
2022-12-26T12:08:44.528Z,35.75
2022-12-26T12:11:26.369Z,33.85
2022-12-26T12:14:13.080Z,31.60
2022-12-26T12:17:01.541Z,33.60
2022-12-26T12:19:55.432Z,33.50
2022-12-26T12:22:46.252Z,31.95
2022-12-26T12:25:24.945Z,31.88
2022-12-26T12:28:27.120Z,32.20
2022-12-26T12:31:11.727Z,31.40
2022-12-26T12:33:50.527Z,32.92
2022-12-26T12:36:24.429Z,35.22
2022-12-26T12:39:17.422Z,31.98
2022-12-26T12:42:10.155Z,33.63
2022-12-26T12:45:05.648Z,33.92
2022-12-26T12:47:34.950Z,35.10
2022-12-26T12:50:29.906Z,35.47
2022-12-26T12:56:06.484Z,32.58
2022-12-26T12:58:51.725Z,32.92
2022-12-26T13:01:23.104Z,34.78
2022-12-26T13:03:57.917Z,38.72
2022-12-26T13:06:30.173Z,33.17
2022-12-26T13:09:17.026Z,36.47
2022-12-26T13:11:53.195Z,37.13
2022-12-26T13:14:33.620Z,34.67
2022-12-26T13:17:11.507Z,39.65
2022-12-26T13:20:03.069Z,37.92
2022-12-26T13:22:58.085Z,36.53
2022-12-26T13:25:27.330Z,37.70
2022-12-26T13:28:09.292Z,38.15
2022-12-26T13:30:39.888Z,37.55
2022-12-26T13:33:06.798Z,40.17
2022-12-26T13:35:57.798Z,38.80
2022-12-26T13:38:26.527Z,42.97
2022-12-26T13:41:22.847Z,42.97
2022-12-26T13:44:27.389Z,43.30
2022-12-26T13:46:57.940Z,41.97
2022-12-26T13:49:41.636Z,43.67
2022-12-26T13:52:10.951Z,43.35
2022-12-26T13:55:06.791Z,41.65
2022-12-26T13:57:41.900Z,39.72
2022-12-26T14:00:41.179Z,39.58
2022-12-26T14:03:21.850Z,37.88
2022-12-26T14:06:04.659Z,37.72
2022-12-26T14:08:54.818Z,35.92
2022-12-26T14:11:44.533Z,37.30
2022-12-26T14:14:26.296Z,35.72
2022-12-26T14:17:05.825Z,35.13
2022-12-26T14:19:47.604Z,36.03
2022-12-26T14:22:25.370Z,35.63
2022-12-26T14:25:35.633Z,36.13
2022-12-26T14:28:24.040Z,37.28
2022-12-26T14:31:25.376Z,35.03
2022-12-26T14:34:01.227Z,35.88
2022-12-26T14:36:49.188Z,34.97
2022-12-26T14:39:34.009Z,33.80
2022-12-26T14:42:25.550Z,32.70
2022-12-26T14:44:56.737Z,32.35
2022-12-26T14:47:46.229Z,31.50
2022-12-26T14:50:34.490Z,32.38
2022-12-26T14:53:28.714Z,34.88
2022-12-26T14:56:10.196Z,37.60
2022-12-26T14:58:52.684Z,40.50
2022-12-26T15:01:22.352Z,44.30
2022-12-26T15:04:16.988Z,49.78
2022-12-26T15:07:41.965Z,56.40
2022-12-26T15:10:29.891Z,67.38
2022-12-26T15:13:13.184Z,79.68
2022-12-26T15:16:09.872Z,88.53
2022-12-26T15:19:18.300Z,103.75
2022-12-26T15:22:09.804Z,116.72
2022-12-26T15:25:19.159Z,126.55
2022-12-26T15:27:59.375Z,125.18
2022-12-26T15:30:43.967Z,128.77
2022-12-26T15:33:18.565Z,128.13
2022-12-26T15:38:51.152Z,102.55
2022-12-26T15:41:32.022Z,106.00
2022-12-26T15:44:21.949Z,103.63
2022-12-26T15:47:04.890Z,99.15
2022-12-26T15:49:50.015Z,96.93
2022-12-26T15:52:31.441Z,85.85
2022-12-26T15:55:09.657Z,65.40
2022-12-26T15:58:23.747Z,58.72
2022-12-26T16:00:53.181Z,50.63
2022-12-26T16:03:19.737Z,47.70
2022-12-26T16:06:24.175Z,52.15
2022-12-26T16:09:21.707Z,50.78
2022-12-26T16:11:52.311Z,44.97
2022-12-26T16:14:32.835Z,51.22
2022-12-26T16:17:14.278Z,49.22
2022-12-26T16:19:43.318Z,47.92
2022-12-26T16:22:44.478Z,49.63
2022-12-26T16:25:22.952Z,50.45
2022-12-26T16:27:52.657Z,50.60
2022-12-26T16:30:23.544Z,49.03
2022-12-26T16:32:51.043Z,48.75
2022-12-26T16:35:19.619Z,48.80
2022-12-26T16:37:47.125Z,47.97
2022-12-26T16:40:18.246Z,45.05
2022-12-26T16:42:55.536Z,43.72
2022-12-26T16:45:23.792Z,43.65
2022-12-26T16:47:50.554Z,45.47
2022-12-26T16:50:23.431Z,46.83
2022-12-26T16:53:00.580Z,46.30
2022-12-26T16:55:37.489Z,47.33
2022-12-26T16:58:21.861Z,50.58
2022-12-26T17:01:10.838Z,41.85
2022-12-26T17:03:39.816Z,43.97
2022-12-26T17:06:14.818Z,51.72
2022-12-26T17:08:48.957Z,46.83
2022-12-26T17:11:16.905Z,47.08
2022-12-26T17:13:54.322Z,48.88
2022-12-26T17:16:24.972Z,49.13
2022-12-26T17:18:54.712Z,51.88
2022-12-26T17:21:23.174Z,54.95
2022-12-26T17:24:05.598Z,57.50
2022-12-26T17:26:32.533Z,56.70
2022-12-26T17:28:59.413Z,59.50
2022-12-26T17:31:35.876Z,61.45
2022-12-26T17:34:13.415Z,65.13
2022-12-26T17:39:27.500Z,63.28
2022-12-26T17:42:00.221Z,65.72
2022-12-26T17:44:52.994Z,70.03
2022-12-26T17:47:21.419Z,70.07
2022-12-26T17:49:49.620Z,74.32
2022-12-26T17:52:20.518Z,74.35
2022-12-26T17:54:49.578Z,80.20
2022-12-26T17:57:35.730Z,77.20
2022-12-26T18:00:02.462Z,77.63
2022-12-26T18:02:29.088Z,78.95
2022-12-26T18:04:55.985Z,86.78
2022-12-26T18:07:31.309Z,83.88
2022-12-26T18:09:58.812Z,82.13
2022-12-26T18:12:25.491Z,85.25
2022-12-26T18:14:57.541Z,84.95
2022-12-26T18:17:28.936Z,86.13
2022-12-26T18:19:57.255Z,84.57
2022-12-26T18:22:23.802Z,84.43
2022-12-26T18:24:50.355Z,87.97
2022-12-26T18:27:19.307Z,82.70
2022-12-26T18:29:46.056Z,78.82
2022-12-26T18:32:33.696Z,81.75
2022-12-26T18:35:00.818Z,81.70
2022-12-26T18:37:29.810Z,87.03
2022-12-26T18:39:57.022Z,81.40
2022-12-26T18:42:23.955Z,83.40
2022-12-26T18:44:50.623Z,84.45
2022-12-26T18:47:19.280Z,83.28
2022-12-26T18:49:46.679Z,82.30
2022-12-26T18:52:17.843Z,82.05
2022-12-26T18:54:44.715Z,85.72
2022-12-26T18:57:17.741Z,86.07
2022-12-26T18:59:44.560Z,82.03
2022-12-26T19:02:17.547Z,83.30
2022-12-26T19:04:44.344Z,84.10
2022-12-26T19:07:11.296Z,82.82
2022-12-26T19:09:37.846Z,83.30
2022-12-26T19:12:04.678Z,85.00
2022-12-26T19:14:31.321Z,85.07
2022-12-26T19:16:57.973Z,80.07
2022-12-26T19:19:26.657Z,79.35
2022-12-26T19:21:53.230Z,78.45
2022-12-26T19:24:19.829Z,78.32
2022-12-26T19:26:46.389Z,78.00
2022-12-26T19:29:13.274Z,79.03
2022-12-26T19:31:40.034Z,79.70
2022-12-26T19:34:06.693Z,80.47
2022-12-26T19:36:33.361Z,79.75
2022-12-26T19:39:00.154Z,76.18
2022-12-26T19:41:26.752Z,77.28
2022-12-26T19:43:59.894Z,75.72
2022-12-26T19:46:27.396Z,73.95
2022-12-26T19:48:54.724Z,72.63
2022-12-26T19:51:22.303Z,72.53
2022-12-26T19:53:49.412Z,67.75
2022-12-26T19:56:22.186Z,65.13
2022-12-26T19:58:54.664Z,58.55
2022-12-26T20:01:28.977Z,56.35
2022-12-26T20:04:04.078Z,55.80
2022-12-26T20:06:32.511Z,53.75
2022-12-26T20:09:01.774Z,50.15
2022-12-26T20:11:31.408Z,48.85
2022-12-26T20:13:59.519Z,44.63
2022-12-26T20:17:03.750Z,50.83
2022-12-26T20:19:14.076Z,45.70
2022-12-26T20:21:40.724Z,46.30
2022-12-26T20:24:07.530Z,38.25
2022-12-26T20:26:34.147Z,37.08
2022-12-26T20:29:01.875Z,41.05
2022-12-26T20:31:30.575Z,38.97
2022-12-26T20:33:57.844Z,39.05
2022-12-26T20:36:27.511Z,41.78
2022-12-26T20:38:56.607Z,41.63
2022-12-26T20:41:23.999Z,39.85
2022-12-26T20:43:51.121Z,41.05
2022-12-26T20:46:20.790Z,42.17
2022-12-26T20:48:49.602Z,39.10
2022-12-26T20:51:23.212Z,38.88
2022-12-26T20:53:51.301Z,38.65
2022-12-26T20:56:18.338Z,36.28
2022-12-26T20:58:45.364Z,39.72
2022-12-26T21:01:17.152Z,39.70
2022-12-26T21:03:43.950Z,41.45
2022-12-26T21:06:13.476Z,36.78
2022-12-26T21:08:41.766Z,39.25
2022-12-26T21:11:17.120Z,39.35
2022-12-26T21:13:45.654Z,40.50
2022-12-26T21:16:20.342Z,39.55
2022-12-26T21:21:17.241Z,40.70
2022-12-26T21:23:44.559Z,39.70
2022-12-26T21:26:12.052Z,40.60
2022-12-26T21:28:39.072Z,37.40
2022-12-26T21:31:10.054Z,38.90
2022-12-26T21:33:44.065Z,38.75
2022-12-26T21:36:13.107Z,42.20
2022-12-26T21:38:40.193Z,40.88
2022-12-26T21:41:11.479Z,42.00
2022-12-26T21:43:38.384Z,40.92
2022-12-26T21:46:08.731Z,41.85
2022-12-26T21:48:36.344Z,42.38
2022-12-26T21:51:07.309Z,43.00
2022-12-26T21:53:34.076Z,39.60
2022-12-26T21:56:05.825Z,41.80
2022-12-26T21:58:52.347Z,39.28
2022-12-26T22:01:21.579Z,40.10
2022-12-26T22:04:06.997Z,40.60
2022-12-26T22:06:34.141Z,40.60
2022-12-26T22:09:01.732Z,40.65
2022-12-26T22:11:46.667Z,40.08
2022-12-26T22:14:13.412Z,41.83
2022-12-26T22:16:40.548Z,39.95
2022-12-26T22:19:07.799Z,40.75
2022-12-26T22:21:34.530Z,39.08
2022-12-26T22:24:01.153Z,40.72
2022-12-26T22:26:29.325Z,41.50
2022-12-26T22:28:57.425Z,40.60
2022-12-26T22:31:31.675Z,37.53
2022-12-26T22:34:01.355Z,40.72
2022-12-26T22:36:29.583Z,40.03
2022-12-26T22:38:57.573Z,38.60
2022-12-26T22:41:24.374Z,40.75
2022-12-26T22:43:50.930Z,41.47
2022-12-26T22:46:18.092Z,38.47
2022-12-26T22:48:44.867Z,40.90
2022-12-26T22:51:20.806Z,39.45
2022-12-26T22:53:48.152Z,40.17
2022-12-26T22:56:15.221Z,42.58
2022-12-26T22:58:42.091Z,38.83
2022-12-26T23:01:17.167Z,39.90
2022-12-26T23:03:44.037Z,43.80
2022-12-26T23:06:24.822Z,41.45
2022-12-26T23:08:54.344Z,42.00
2022-12-26T23:11:22.242Z,42.28
2022-12-26T23:13:49.750Z,41.88
2022-12-26T23:16:24.607Z,42.50
2022-12-26T23:19:52.980Z,42.78
2022-12-26T23:22:19.787Z,42.70
2022-12-26T23:24:46.342Z,42.35
2022-12-26T23:27:31.521Z,44.35
2022-12-26T23:30:16.397Z,42.50
2022-12-26T23:32:44.511Z,45.80
2022-12-26T23:35:12.364Z,46.60
2022-12-26T23:37:40.718Z,49.65
2022-12-26T23:40:09.699Z,48.95
2022-12-26T23:42:37.276Z,50.80
2022-12-26T23:45:04.823Z,52.28
2022-12-26T23:47:31.803Z,49.42
2022-12-26T23:49:58.442Z,47.03
2022-12-26T23:52:30.025Z,43.55
2022-12-26T23:54:57.336Z,49.20
2022-12-26T23:57:24.104Z,50.58
2022-12-26T23:59:50.675Z,48.80
